createdAt,value
2022-07-29T00:01:01.882Z,27.24
2022-07-29T00:03:28.356Z,26.91
2022-07-29T00:05:54.912Z,27.06
2022-07-29T00:08:21.630Z,27.21
2022-07-29T00:10:49.585Z,27.32
2022-07-29T00:13:16.164Z,27.36
2022-07-29T00:15:42.704Z,27.38
2022-07-29T00:18:09.208Z,27.32
2022-07-29T00:20:35.802Z,27.27
2022-07-29T00:23:02.305Z,27.34
2022-07-29T00:25:28.831Z,27.31
2022-07-29T00:27:55.409Z,27.39
2022-07-29T00:30:21.977Z,27.41
2022-07-29T00:32:48.537Z,27.45
2022-07-29T00:35:15.058Z,27.44
2022-07-29T00:37:41.694Z,27.39
2022-07-29T00:40:09.155Z,27.36
2022-07-29T00:42:51.488Z,27.22
2022-07-29T00:45:19.198Z,27.23
2022-07-29T00:47:46.244Z,27.18
2022-07-29T00:50:14.412Z,27.17
2022-07-29T00:52:42.856Z,27.02
2022-07-29T00:55:12.897Z,27.05
2022-07-29T00:57:40.860Z,27.01
2022-07-29T01:00:11.695Z,26.80
2022-07-29T01:02:38.644Z,26.91
2022-07-29T01:05:06.766Z,26.84
2022-07-29T01:07:36.982Z,26.66
2022-07-29T01:10:09.651Z,26.68
2022-07-29T01:12:38.684Z,26.66
2022-07-29T01:15:08.008Z,26.65
2022-07-29T01:17:37.645Z,26.69
2022-07-29T01:20:31.542Z,26.60
2022-07-29T01:23:16.448Z,26.73
2022-07-29T01:26:13.822Z,26.78
2022-07-29T01:29:35.801Z,26.84
2022-07-29T01:32:20.263Z,26.91
2022-07-29T01:34:54.445Z,26.88
2022-07-29T01:37:27.812Z,26.98
2022-07-29T01:39:59.697Z,27.00
2022-07-29T01:42:42.862Z,27.03
2022-07-29T01:45:15.512Z,27.07
2022-07-29T01:47:55.113Z,27.10
2022-07-29T01:50:32.103Z,27.20
2022-07-29T01:53:02.855Z,26.94
2022-07-29T01:55:34.880Z,26.88
2022-07-29T01:58:05.741Z,26.98
2022-07-29T02:00:33.932Z,27.03
2022-07-29T02:03:09.806Z,27.00
2022-07-29T02:05:39.947Z,26.93
2022-07-29T02:08:09.579Z,26.97
2022-07-29T02:10:40.863Z,26.90
2022-07-29T02:13:10.421Z,26.90
2022-07-29T02:15:38.285Z,26.94
2022-07-29T02:18:13.860Z,26.96
2022-07-29T02:20:46.386Z,26.96
2022-07-29T02:23:15.403Z,26.90
2022-07-29T02:25:43.840Z,26.98
2022-07-29T02:28:15.044Z,26.93
2022-07-29T02:30:44.291Z,26.99
2022-07-29T02:33:15.278Z,26.85
2022-07-29T02:35:44.620Z,26.92
2022-07-29T02:38:15.998Z,26.95
2022-07-29T02:40:43.778Z,26.89
2022-07-29T02:43:11.780Z,26.96
2022-07-29T02:45:39.147Z,26.75
2022-07-29T02:48:16.812Z,26.48
2022-07-29T02:50:53.154Z,26.45
2022-07-29T02:53:24.917Z,26.62
2022-07-29T02:56:02.192Z,26.71
2022-07-29T02:58:34.304Z,26.76
2022-07-29T03:01:09.114Z,26.77
2022-07-29T03:03:38.752Z,26.59
2022-07-29T03:06:08.281Z,26.48
2022-07-29T03:08:36.362Z,26.39
2022-07-29T03:11:05.102Z,26.54
2022-07-29T03:13:32.150Z,26.62
2022-07-29T03:16:00.305Z,26.75
2022-07-29T03:18:27.959Z,26.82
2022-07-29T03:20:54.863Z,26.90
2022-07-29T03:23:22.866Z,26.91
2022-07-29T03:25:50.653Z,26.96
2022-07-29T03:28:17.201Z,26.99
2022-07-29T03:30:46.274Z,27.04
2022-07-29T03:33:13.719Z,27.03
2022-07-29T03:35:40.570Z,26.99
2022-07-29T03:38:07.112Z,26.94
2022-07-29T03:40:50.433Z,26.89
2022-07-29T03:43:19.180Z,26.85
2022-07-29T03:45:50.695Z,26.86
2022-07-29T03:48:21.869Z,26.83
2022-07-29T03:50:48.978Z,26.92
2022-07-29T03:53:15.603Z,26.87
2022-07-29T03:55:47.670Z,26.96
2022-07-29T03:58:15.309Z,26.91
2022-07-29T04:00:43.862Z,26.89
2022-07-29T04:03:11.910Z,26.86
2022-07-29T04:05:38.574Z,26.81
2022-07-29T04:08:05.509Z,26.83
2022-07-29T04:10:34.185Z,26.83
2022-07-29T04:13:22.349Z,26.79
2022-07-29T04:15:48.923Z,26.76
2022-07-29T04:18:15.474Z,26.74
2022-07-29T04:20:42.074Z,26.57
2022-07-29T04:23:08.826Z,26.65
2022-07-29T04:25:38.324Z,26.68
2022-07-29T04:28:05.651Z,26.62
2022-07-29T04:30:33.638Z,26.63
2022-07-29T04:33:01.624Z,26.58
2022-07-29T04:35:29.365Z,26.62
2022-07-29T04:37:55.953Z,26.70
2022-07-29T04:40:22.560Z,26.70
2022-07-29T04:42:49.454Z,26.77
2022-07-29T04:45:16.218Z,26.70
2022-07-29T04:47:43.160Z,26.76
2022-07-29T04:50:10.599Z,26.64
2022-07-29T04:52:37.341Z,26.69
2022-07-29T04:55:05.319Z,26.72
2022-07-29T04:57:31.819Z,26.79
2022-07-29T04:59:58.603Z,26.77
2022-07-29T05:02:25.190Z,26.77
2022-07-29T05:04:51.725Z,26.55
2022-07-29T05:07:18.233Z,26.65
2022-07-29T05:09:45.189Z,26.44
2022-07-29T05:12:11.678Z,26.38
2022-07-29T05:14:38.187Z,26.42
2022-07-29T05:17:04.680Z,26.34
2022-07-29T05:19:31.300Z,26.38
2022-07-29T05:21:57.827Z,26.38
2022-07-29T05:24:24.506Z,26.34
2022-07-29T05:26:51.024Z,26.44
2022-07-29T05:29:44.107Z,26.41
2022-07-29T05:32:04.720Z,25.98
2022-07-29T05:34:31.860Z,26.06
2022-07-29T05:36:58.722Z,25.78
2022-07-29T05:39:48.770Z,25.29
2022-07-29T05:42:11.827Z,25.35
2022-07-29T05:44:39.248Z,25.24
2022-07-29T05:47:06.115Z,25.11
2022-07-29T05:49:33.062Z,25.10
2022-07-29T05:51:59.607Z,25.17
2022-07-29T05:54:26.146Z,24.87
2022-07-29T05:56:52.639Z,24.93
2022-07-29T05:59:19.210Z,25.13
2022-07-29T06:01:45.756Z,24.82
2022-07-29T06:04:12.460Z,24.92
2022-07-29T06:06:39.124Z,24.78
2022-07-29T06:09:12.758Z,24.82
2022-07-29T06:11:40.458Z,25.17
2022-07-29T06:14:06.967Z,25.05
2022-07-29T06:16:33.478Z,25.17
2022-07-29T06:19:00.050Z,25.38
2022-07-29T06:21:26.567Z,25.56
2022-07-29T06:23:53.085Z,25.72
2022-07-29T06:26:19.568Z,25.63
2022-07-29T06:28:59.075Z,25.62
2022-07-29T06:31:25.635Z,25.52
2022-07-29T06:33:52.183Z,25.27
2022-07-29T06:36:21.357Z,25.19
2022-07-29T06:38:51.570Z,25.08
2022-07-29T06:41:18.868Z,25.00
2022-07-29T06:43:52.182Z,25.23
2022-07-29T06:46:22.523Z,24.95
2022-07-29T06:48:49.404Z,24.80
2022-07-29T06:51:16.308Z,24.52
2022-07-29T06:53:59.870Z,24.71
2022-07-29T06:56:38.429Z,24.50
2022-07-29T06:59:10.356Z,24.69
2022-07-29T07:01:42.498Z,25.03
2022-07-29T07:04:10.555Z,25.16
2022-07-29T07:06:37.396Z,25.69
2022-07-29T07:09:04.633Z,25.92
2022-07-29T07:11:31.410Z,26.01
2022-07-29T07:14:02.676Z,26.42
2022-07-29T07:16:30.352Z,26.83
2022-07-29T07:18:56.900Z,26.91
2022-07-29T07:21:23.378Z,27.09
2022-07-29T07:23:49.881Z,27.08
2022-07-29T07:26:16.480Z,27.31
2022-07-29T07:28:43.058Z,27.33
2022-07-29T07:31:09.614Z,27.60
2022-07-29T07:33:36.344Z,27.55
2022-07-29T07:36:03.614Z,27.83
2022-07-29T07:38:30.171Z,28.00
2022-07-29T07:40:56.658Z,28.11
2022-07-29T07:43:23.162Z,28.07
2022-07-29T07:45:49.744Z,28.26
2022-07-29T07:48:16.284Z,28.44
2022-07-29T07:50:42.845Z,28.27
2022-07-29T07:53:09.425Z,27.80
2022-07-29T07:56:07.967Z,28.05
2022-07-29T07:58:27.911Z,27.86
2022-07-29T08:01:04.181Z,28.21
2022-07-29T08:03:30.792Z,28.42
2022-07-29T08:05:57.355Z,28.30
2022-07-29T08:08:23.847Z,28.36
2022-07-29T08:10:50.340Z,28.44
2022-07-29T08:13:16.920Z,28.73
2022-07-29T08:15:43.619Z,28.88
2022-07-29T08:18:10.177Z,29.13
2022-07-29T08:20:37.786Z,29.34
2022-07-29T08:23:05.426Z,29.42
2022-07-29T08:25:32.372Z,29.39
2022-07-29T08:28:01.266Z,29.15
2022-07-29T08:30:27.822Z,29.16
2022-07-29T08:32:55.659Z,29.14
2022-07-29T08:35:24.303Z,29.22
2022-07-29T08:37:51.302Z,29.33
2022-07-29T08:40:18.003Z,29.06
2022-07-29T08:42:45.515Z,29.17
2022-07-29T08:45:12.091Z,28.93
2022-07-29T08:47:39.985Z,28.88
2022-07-29T08:50:08.085Z,28.61
2022-07-29T08:52:39.466Z,28.61
2022-07-29T08:55:08.438Z,28.67
2022-07-29T08:57:37.272Z,28.72
2022-07-29T09:00:11.788Z,28.64
2022-07-29T09:02:48.659Z,28.53
2022-07-29T09:05:15.918Z,28.52
2022-07-29T09:07:43.006Z,28.59
2022-07-29T09:10:09.991Z,28.66
2022-07-29T09:12:38.109Z,28.67
2022-07-29T09:15:05.680Z,28.80
2022-07-29T09:17:50.005Z,28.92
2022-07-29T09:20:19.753Z,28.98
2022-07-29T09:22:46.862Z,29.11
2022-07-29T09:25:13.933Z,28.67
2022-07-29T09:27:40.637Z,28.69
2022-07-29T09:30:10.218Z,28.76
2022-07-29T09:32:56.971Z,28.98
2022-07-29T09:35:25.841Z,28.91
2022-07-29T09:37:53.246Z,29.04
2022-07-29T09:40:23.251Z,28.92
2022-07-29T09:42:50.727Z,29.08
2022-07-29T09:45:34.222Z,29.06
2022-07-29T09:48:18.011Z,29.01
2022-07-29T09:50:46.388Z,29.05
2022-07-29T09:53:13.072Z,29.04
2022-07-29T09:55:52.236Z,29.01
2022-07-29T09:58:23.330Z,28.99
2022-07-29T10:00:51.853Z,28.97
2022-07-29T10:03:19.491Z,28.97
2022-07-29T10:05:46.878Z,28.99
2022-07-29T10:08:13.842Z,29.15
2022-07-29T10:10:42.748Z,29.15
2022-07-29T10:13:16.603Z,29.30
2022-07-29T10:15:44.905Z,29.35
2022-07-29T10:18:15.541Z,29.43
2022-07-29T10:20:42.447Z,29.49
2022-07-29T10:23:10.442Z,29.38
2022-07-29T10:25:37.189Z,29.38
2022-07-29T10:28:03.853Z,29.57
2022-07-29T10:30:30.418Z,29.26
2022-07-29T10:33:19.737Z,29.32
2022-07-29T10:36:11.143Z,28.75
2022-07-29T10:38:55.782Z,28.67
2022-07-29T10:41:44.366Z,28.69
2022-07-29T10:44:19.485Z,28.84
2022-07-29T10:46:50.830Z,28.67
2022-07-29T10:49:19.454Z,28.47
2022-07-29T10:51:55.156Z,28.58
2022-07-29T10:54:36.949Z,28.00
2022-07-29T10:57:14.073Z,28.45
2022-07-29T10:59:46.014Z,27.90
2022-07-29T11:02:41.728Z,27.93
2022-07-29T11:05:18.115Z,28.14
2022-07-29T11:08:16.687Z,27.98
2022-07-29T11:10:50.902Z,28.12
2022-07-29T11:13:46.537Z,27.56
2022-07-29T11:19:14.254Z,27.29
2022-07-29T11:21:53.901Z,27.14
2022-07-29T11:24:30.122Z,26.72
2022-07-29T11:27:17.856Z,25.33
2022-07-29T11:32:48.709Z,23.88
2022-07-29T11:38:23.631Z,23.45
2022-07-29T11:41:17.890Z,23.36
2022-07-29T11:43:50.700Z,23.29
2022-07-29T11:46:39.141Z,23.22
2022-07-29T11:49:09.682Z,23.43
2022-07-29T11:51:38.188Z,23.36
2022-07-29T11:54:27.568Z,23.11
2022-07-29T11:56:54.662Z,22.99
2022-07-29T11:59:22.535Z,22.87
2022-07-29T12:02:18.493Z,22.95
2022-07-29T12:04:52.236Z,23.17
2022-07-29T12:07:03.750Z,23.92
2022-07-29T12:07:26.789Z,23.01
2022-07-29T12:10:06.372Z,23.02
2022-07-29T12:12:33.692Z,22.68
2022-07-29T12:15:16.056Z,23.06
2022-07-29T12:17:42.792Z,22.90
2022-07-29T12:20:09.802Z,23.34
2022-07-29T12:22:41.518Z,23.57
2022-07-29T12:28:02.751Z,23.52
2022-07-29T12:30:55.539Z,23.70
2022-07-29T12:33:26.517Z,23.72
2022-07-29T12:36:06.876Z,23.83
2022-07-29T12:38:36.120Z,23.78
2022-07-29T12:41:04.431Z,23.77
2022-07-29T12:43:31.790Z,23.76
2022-07-29T12:45:58.525Z,23.67
2022-07-29T12:48:39.954Z,23.44
2022-07-29T12:51:08.574Z,23.61
2022-07-29T12:53:36.769Z,23.56
2022-07-29T12:56:15.511Z,23.52
2022-07-29T12:58:51.880Z,23.62
2022-07-29T13:01:19.501Z,23.58
2022-07-29T13:03:56.673Z,23.86
2022-07-29T13:06:50.907Z,24.16
2022-07-29T13:09:18.876Z,24.21
2022-07-29T13:11:51.659Z,24.61
2022-07-29T13:14:32.804Z,24.51
2022-07-29T13:17:09.726Z,24.76
2022-07-29T13:19:54.261Z,24.48
2022-07-29T13:22:25.073Z,24.79
2022-07-29T13:24:56.395Z,24.64
2022-07-29T13:27:27.886Z,24.86
2022-07-29T13:29:56.532Z,25.19
2022-07-29T13:32:28.377Z,25.18
2022-07-29T13:35:00.148Z,24.99
2022-07-29T13:37:27.330Z,24.98
2022-07-29T13:39:53.849Z,24.82
2022-07-29T13:42:22.714Z,24.89
2022-07-29T13:44:49.392Z,25.11
2022-07-29T13:47:16.095Z,25.06
2022-07-29T13:49:42.591Z,25.36
2022-07-29T13:52:09.099Z,25.12
2022-07-29T13:54:40.127Z,25.24
2022-07-29T13:57:09.186Z,25.22
2022-07-29T13:59:35.679Z,25.68
2022-07-29T14:02:02.202Z,25.05
2022-07-29T14:04:28.777Z,25.35
2022-07-29T14:06:55.471Z,25.80
2022-07-29T14:09:21.962Z,26.02
2022-07-29T14:11:48.591Z,27.10
2022-07-29T14:14:15.062Z,28.36
2022-07-29T14:16:47.656Z,29.69
2022-07-29T14:19:17.133Z,30.57
2022-07-29T14:21:43.627Z,31.38
2022-07-29T14:24:17.692Z,32.47
2022-07-29T14:26:48.302Z,33.05
2022-07-29T14:29:15.624Z,33.58
2022-07-29T14:31:42.481Z,34.13
2022-07-29T14:34:09.051Z,34.52
2022-07-29T14:36:35.553Z,34.79
2022-07-29T14:39:02.046Z,35.08
2022-07-29T14:41:28.541Z,34.96
2022-07-29T14:43:55.264Z,34.69
2022-07-29T14:46:21.876Z,33.61
2022-07-29T14:48:48.446Z,33.08
2022-07-29T14:51:14.992Z,32.48
2022-07-29T14:53:41.497Z,32.19
2022-07-29T14:56:34.245Z,31.47
2022-07-29T14:58:54.515Z,31.09
2022-07-29T15:01:21.057Z,30.99
2022-07-29T15:03:47.578Z,30.70
2022-07-29T15:06:14.088Z,30.49
2022-07-29T15:08:40.816Z,30.48
2022-07-29T15:11:07.349Z,30.84
2022-07-29T15:13:34.581Z,31.31
2022-07-29T15:16:01.063Z,31.96
2022-07-29T15:18:27.752Z,32.04
2022-07-29T15:20:54.251Z,32.07
2022-07-29T15:23:20.799Z,31.84
2022-07-29T15:25:47.592Z,31.62
2022-07-29T15:28:14.177Z,31.41
2022-07-29T15:30:40.690Z,31.23
2022-07-29T15:33:08.703Z,30.95
2022-07-29T15:35:40.278Z,30.65
2022-07-29T15:38:08.106Z,30.28
2022-07-29T15:40:38.037Z,29.84
2022-07-29T15:43:05.558Z,29.45
2022-07-29T15:45:40.537Z,29.17
2022-07-29T15:48:09.904Z,29.02
2022-07-29T15:50:41.329Z,29.17
2022-07-29T15:53:07.868Z,29.09
2022-07-29T15:55:34.407Z,28.89
2022-07-29T15:58:00.996Z,28.87
2022-07-29T16:00:27.861Z,28.70
2022-07-29T16:02:54.380Z,28.36
2022-07-29T16:05:20.916Z,28.10
2022-07-29T16:07:47.432Z,27.97
2022-07-29T16:10:14.059Z,28.03
2022-07-29T16:12:40.620Z,28.08
2022-07-29T16:15:09.872Z,27.82
2022-07-29T16:17:38.109Z,27.73
2022-07-29T16:20:06.025Z,27.69
2022-07-29T16:22:32.549Z,27.94
2022-07-29T16:24:59.077Z,27.82
2022-07-29T16:27:25.674Z,27.92
2022-07-29T16:30:00.802Z,27.99
2022-07-29T16:32:28.479Z,28.03
2022-07-29T16:34:54.967Z,28.01
2022-07-29T16:37:21.530Z,27.83
2022-07-29T16:39:48.012Z,28.07
2022-07-29T16:42:36.709Z,27.95
2022-07-29T16:45:01.592Z,27.94
2022-07-29T16:47:29.335Z,28.21
2022-07-29T16:49:56.345Z,28.35
2022-07-29T16:52:22.852Z,28.45
2022-07-29T16:54:49.595Z,28.58
2022-07-29T16:57:16.434Z,28.65
2022-07-29T16:59:43.774Z,28.64
2022-07-29T17:02:10.359Z,28.61
2022-07-29T17:04:36.992Z,28.64
2022-07-29T17:07:03.626Z,28.67
2022-07-29T17:09:30.132Z,28.58
2022-07-29T17:11:56.672Z,28.61
2022-07-29T17:14:24.432Z,28.57
2022-07-29T17:17:01.208Z,28.77
2022-07-29T17:19:30.986Z,28.82
2022-07-29T17:22:05.035Z,28.95
2022-07-29T17:24:35.859Z,29.03
2022-07-29T17:27:02.456Z,29.22
2022-07-29T17:29:28.954Z,29.32
2022-07-29T17:31:55.433Z,29.79
2022-07-29T17:34:21.920Z,30.42
2022-07-29T17:36:48.444Z,30.72
2022-07-29T17:39:14.937Z,31.09
2022-07-29T17:41:41.435Z,30.97
2022-07-29T17:44:08.165Z,30.82
2022-07-29T17:46:35.106Z,30.94
2022-07-29T17:49:02.041Z,30.83
2022-07-29T17:51:29.486Z,30.64
2022-07-29T17:53:55.978Z,30.56
2022-07-29T17:56:22.496Z,30.47
2022-07-29T17:58:49.036Z,30.37
2022-07-29T18:01:15.743Z,30.57
2022-07-29T18:03:42.912Z,30.66
2022-07-29T18:06:10.308Z,30.56
2022-07-29T18:08:37.451Z,30.54
2022-07-29T18:11:04.019Z,30.43
2022-07-29T18:13:30.788Z,30.24
2022-07-29T18:16:00.294Z,30.12
2022-07-29T18:18:27.367Z,29.90
2022-07-29T18:20:53.978Z,29.58
2022-07-29T18:23:20.490Z,29.40
2022-07-29T18:25:47.038Z,28.92
2022-07-29T18:28:13.980Z,29.04
2022-07-29T18:30:40.509Z,28.98
2022-07-29T18:33:23.008Z,28.93
2022-07-29T18:35:52.447Z,28.87
2022-07-29T18:38:36.645Z,28.80
2022-07-29T18:41:03.130Z,28.70
2022-07-29T18:43:29.623Z,28.63
2022-07-29T18:45:56.158Z,28.58
2022-07-29T18:48:23.705Z,28.42
2022-07-29T18:50:50.229Z,28.37
2022-07-29T18:53:16.802Z,28.30
2022-07-29T18:55:43.409Z,28.25
2022-07-29T18:58:09.921Z,28.20
2022-07-29T19:00:36.410Z,28.14
2022-07-29T19:03:03.104Z,27.80
2022-07-29T19:05:29.819Z,27.89
2022-07-29T19:07:56.296Z,27.75
2022-07-29T19:10:22.884Z,27.77
2022-07-29T19:12:49.527Z,27.67
2022-07-29T19:15:20.361Z,27.59
2022-07-29T19:17:48.064Z,27.59
2022-07-29T19:20:15.097Z,27.50
2022-07-29T19:22:41.588Z,27.44
2022-07-29T19:25:08.314Z,27.35
2022-07-29T19:27:34.803Z,27.32
2022-07-29T19:30:01.291Z,27.29
2022-07-29T19:32:27.814Z,27.24
2022-07-29T19:34:54.314Z,27.21
2022-07-29T19:37:20.851Z,27.19
2022-07-29T19:39:47.372Z,27.04
2022-07-29T19:42:13.886Z,27.06
2022-07-29T19:44:40.373Z,27.02
2022-07-29T19:47:06.883Z,26.87
2022-07-29T19:49:33.491Z,26.53
2022-07-29T19:51:59.980Z,26.45
2022-07-29T19:54:26.492Z,26.32
2022-07-29T19:56:53.027Z,26.24
2022-07-29T19:59:19.532Z,26.23
2022-07-29T20:01:51.161Z,25.87
2022-07-29T20:04:17.727Z,26.04
2022-07-29T20:06:44.287Z,26.07
2022-07-29T20:09:17.729Z,26.05
2022-07-29T20:11:47.233Z,26.00
2022-07-29T20:14:13.817Z,26.03
2022-07-29T20:16:40.314Z,26.01
2022-07-29T20:19:06.848Z,26.03
2022-07-29T20:21:33.343Z,26.02
2022-07-29T20:23:59.869Z,26.03
2022-07-29T20:26:26.432Z,26.01
2022-07-29T20:28:52.919Z,25.95
2022-07-29T20:31:19.458Z,25.85
2022-07-29T20:33:46.244Z,25.89
2022-07-29T20:36:12.920Z,25.75
2022-07-29T20:38:39.461Z,25.77
2022-07-29T20:41:06.548Z,25.75
2022-07-29T20:43:38.859Z,25.71
2022-07-29T20:46:05.952Z,25.75
2022-07-29T20:48:32.533Z,25.81
2022-07-29T20:50:59.127Z,25.82
2022-07-29T20:53:25.643Z,25.81
2022-07-29T20:55:52.118Z,25.80
2022-07-29T20:58:18.666Z,25.84
2022-07-29T21:00:46.170Z,25.80
2022-07-29T21:03:12.816Z,25.72
2022-07-29T21:05:39.438Z,25.70
2022-07-29T21:08:10.031Z,25.78
2022-07-29T21:10:36.655Z,25.78
2022-07-29T21:13:03.256Z,25.81
2022-07-29T21:15:30.373Z,25.75
2022-07-29T21:17:56.927Z,25.78
2022-07-29T21:20:23.475Z,25.70
2022-07-29T21:22:50.047Z,25.48
2022-07-29T21:25:16.551Z,25.29
2022-07-29T21:27:43.067Z,25.25
2022-07-29T21:30:09.830Z,25.25
2022-07-29T21:32:36.642Z,25.13
2022-07-29T21:35:03.601Z,25.28
2022-07-29T21:37:41.847Z,25.26
2022-07-29T21:40:09.024Z,25.36
2022-07-29T21:42:35.510Z,25.34
2022-07-29T21:45:02.016Z,25.23
2022-07-29T21:47:28.644Z,25.25
2022-07-29T21:49:55.186Z,25.23
2022-07-29T21:52:21.688Z,25.19
2022-07-29T21:54:48.200Z,25.23
2022-07-29T21:57:16.281Z,25.22
2022-07-29T21:59:42.770Z,25.28
2022-07-29T22:02:09.356Z,25.29
2022-07-29T22:04:36.125Z,25.32
2022-07-29T22:07:03.010Z,25.27
2022-07-29T22:09:30.017Z,25.25
2022-07-29T22:11:56.544Z,25.27
2022-07-29T22:14:23.029Z,25.18
2022-07-29T22:16:49.656Z,25.18
2022-07-29T22:19:16.243Z,25.17
2022-07-29T22:21:42.807Z,25.12
2022-07-29T22:24:09.639Z,25.06
2022-07-29T22:26:36.159Z,24.95
2022-07-29T22:29:02.661Z,24.94
2022-07-29T22:31:29.179Z,24.97
2022-07-29T22:33:55.759Z,25.01
2022-07-29T22:36:22.251Z,24.95
2022-07-29T22:38:51.881Z,24.96
2022-07-29T22:41:18.662Z,24.98
2022-07-29T22:43:45.198Z,24.94
2022-07-29T22:46:11.693Z,25.06
2022-07-29T22:48:38.616Z,25.03
2022-07-29T22:51:05.202Z,25.05
2022-07-29T22:53:32.546Z,25.00
2022-07-29T22:55:59.031Z,25.07
2022-07-29T22:58:25.567Z,25.08
2022-07-29T23:00:52.156Z,25.05
2022-07-29T23:03:18.743Z,25.08
2022-07-29T23:05:45.316Z,25.04
2022-07-29T23:08:11.802Z,25.09
2022-07-29T23:10:38.308Z,25.10
2022-07-29T23:13:04.781Z,25.04
2022-07-29T23:15:31.444Z,25.03
2022-07-29T23:17:57.960Z,25.04
2022-07-29T23:20:24.536Z,25.08
2022-07-29T23:22:51.252Z,25.13
2022-07-29T23:25:17.838Z,25.08
2022-07-29T23:27:44.364Z,25.16
2022-07-29T23:30:11.220Z,25.14
2022-07-29T23:32:37.695Z,25.16
2022-07-29T23:35:04.915Z,24.99
2022-07-29T23:37:31.386Z,24.93
2022-07-29T23:39:58.052Z,24.91
2022-07-29T23:42:24.691Z,24.90
2022-07-29T23:44:51.511Z,24.90
2022-07-29T23:47:18.023Z,24.93
2022-07-29T23:49:44.576Z,24.94
2022-07-29T23:52:11.071Z,24.80
2022-07-29T23:54:37.850Z,24.94
2022-07-29T23:57:04.686Z,24.93
2022-07-29T23:59:31.199Z,24.94
